createdAt,value
2024-04-09T00:01:21.989Z,100550.59
2024-04-09T00:03:49.219Z,100571.41
2024-04-09T00:06:16.789Z,100577.72
2024-04-09T00:08:46.182Z,100546.97
2024-04-09T00:11:23.755Z,100601.66
2024-04-09T00:13:55.539Z,100600.47
2024-04-09T00:16:30.626Z,100542.16
2024-04-09T00:19:00.352Z,100625.09
2024-04-09T00:21:30.995Z,100609.78
2024-04-09T00:23:59.534Z,100627.75
2024-04-09T00:26:27.652Z,100628.47
2024-04-09T00:28:54.952Z,100605.31
2024-04-09T00:31:22.690Z,100638.31
2024-04-09T00:33:50.758Z,100635.28
2024-04-09T00:36:17.900Z,100637.31
2024-04-09T00:38:48.472Z,100632.78
2024-04-09T00:41:16.630Z,100632.97
2024-04-09T00:43:44.145Z,100617.44
2024-04-09T00:46:11.597Z,100652.56
2024-04-09T00:48:39.158Z,100650.19
2024-04-09T00:51:08.278Z,100664.06
2024-04-09T00:53:36.224Z,100669.28
2024-04-09T00:56:03.522Z,100673.19
2024-04-09T00:58:30.555Z,100639.84
2024-04-09T01:00:58.298Z,100686.41
2024-04-09T01:03:26.351Z,100676.66
2024-04-09T01:05:54.278Z,100640.91
2024-04-09T01:08:21.188Z,100682.75
2024-04-09T01:10:47.966Z,100661.94
2024-04-09T01:13:14.754Z,100653.53
2024-04-09T01:15:41.588Z,100660.25
2024-04-09T01:18:08.439Z,100635.22
2024-04-09T01:20:35.245Z,100643.09
2024-04-09T01:23:02.158Z,100646.44
2024-04-09T01:25:28.911Z,100687.25
2024-04-09T01:27:55.807Z,100692.63
2024-04-09T01:30:23.200Z,100660.34
2024-04-09T01:32:50.733Z,100682.03
2024-04-09T01:35:17.980Z,100677.00
2024-04-09T01:37:44.769Z,100639.00
2024-04-09T01:40:14.823Z,100665.25
2024-04-09T01:42:41.788Z,100668.78
2024-04-09T01:45:09.078Z,100625.75
2024-04-09T01:47:36.331Z,100648.94
2024-04-09T01:50:05.108Z,100631.63
2024-04-09T01:52:33.051Z,100605.75
2024-04-09T01:55:00.003Z,100649.91
2024-04-09T01:57:31.358Z,100610.97
2024-04-09T01:59:58.400Z,100648.56
2024-04-09T02:02:25.606Z,100690.69
2024-04-09T02:04:52.392Z,100701.59
2024-04-09T02:07:19.609Z,100665.53
2024-04-09T02:09:49.522Z,100690.97
2024-04-09T02:12:16.283Z,100753.28
2024-04-09T02:14:43.044Z,100721.22
2024-04-09T02:17:09.798Z,100732.31
2024-04-09T02:19:37.451Z,100778.28
2024-04-09T02:22:04.983Z,100774.25
2024-04-09T02:24:31.871Z,100759.47
2024-04-09T02:26:58.806Z,100759.16
2024-04-09T02:29:25.673Z,100686.91
2024-04-09T02:31:53.418Z,100721.00
2024-04-09T02:34:24.702Z,100749.84
2024-04-09T02:36:52.790Z,100730.91
2024-04-09T02:39:19.934Z,100771.78
2024-04-09T02:41:46.864Z,100780.69
2024-04-09T02:44:13.653Z,100776.81
2024-04-09T02:46:40.590Z,100776.81
2024-04-09T02:49:08.004Z,100801.47
2024-04-09T02:51:37.688Z,100822.94
2024-04-09T02:54:04.752Z,100812.88
2024-04-09T02:56:31.733Z,100776.72
2024-04-09T02:58:58.670Z,100781.41
2024-04-09T03:01:25.487Z,100828.56
2024-04-09T03:03:52.390Z,100852.53
2024-04-09T03:06:19.522Z,100763.00
2024-04-09T03:08:46.695Z,100833.69
2024-04-09T03:11:23.537Z,100843.50
2024-04-09T03:13:51.103Z,100842.13
2024-04-09T03:16:22.729Z,100828.31
2024-04-09T03:18:55.093Z,100851.06
2024-04-09T03:21:22.233Z,100833.84
2024-04-09T03:23:49.333Z,100833.47
2024-04-09T03:26:16.126Z,100774.03
2024-04-09T03:28:43.245Z,100870.16
2024-04-09T03:31:11.030Z,100780.94
2024-04-09T03:33:38.252Z,100804.63
2024-04-09T03:36:07.023Z,100852.31
2024-04-09T03:38:33.879Z,100827.78
2024-04-09T03:41:03.110Z,100857.97
2024-04-09T03:43:29.973Z,100847.00
2024-04-09T03:46:16.322Z,100868.53
2024-04-09T03:48:46.062Z,100865.84
2024-04-09T03:51:15.589Z,100847.06
2024-04-09T03:53:43.016Z,100861.09
2024-04-09T03:56:10.648Z,100881.56
2024-04-09T03:58:42.281Z,100869.16
2024-04-09T04:01:10.187Z,100871.28
2024-04-09T04:03:40.646Z,100894.91
2024-04-09T04:06:07.636Z,100911.38
2024-04-09T04:08:36.626Z,100907.00
2024-04-09T04:11:04.933Z,100870.09
2024-04-09T04:13:33.220Z,100907.47
2024-04-09T04:16:07.027Z,100907.63
2024-04-09T04:18:38.152Z,100915.56
2024-04-09T04:21:08.899Z,100915.97
2024-04-09T04:23:37.796Z,100923.47
2024-04-09T04:26:08.168Z,100935.72
2024-04-09T04:28:43.618Z,100926.44
2024-04-09T04:31:12.335Z,100842.31
2024-04-09T04:33:40.714Z,100946.00
2024-04-09T04:36:08.670Z,100944.00
2024-04-09T04:38:36.554Z,100941.88
2024-04-09T04:41:03.987Z,100942.03
2024-04-09T04:43:30.811Z,100937.09
2024-04-09T04:45:57.894Z,100958.13
2024-04-09T04:48:25.475Z,100962.63
2024-04-09T04:50:53.466Z,100964.63
2024-04-09T04:53:21.084Z,100975.34
2024-04-09T04:55:48.785Z,100979.03
2024-04-09T04:58:15.511Z,100984.84
2024-04-09T05:00:42.852Z,100979.03
2024-04-09T05:03:11.087Z,101004.47
2024-04-09T05:05:38.804Z,101023.91
2024-04-09T05:08:06.283Z,101035.34
2024-04-09T05:10:33.646Z,101037.19
2024-04-09T05:13:01.373Z,100922.91
2024-04-09T05:15:30.707Z,100919.22
2024-04-09T05:18:01.273Z,101038.22
2024-04-09T05:20:28.605Z,101054.41
2024-04-09T05:22:57.859Z,101056.94
2024-04-09T05:25:28.435Z,101013.91
2024-04-09T05:27:56.260Z,100994.53
2024-04-09T05:30:23.536Z,101070.72
2024-04-09T05:32:50.586Z,101048.66
2024-04-09T05:35:21.041Z,101003.66
2024-04-09T05:37:47.946Z,101022.44
2024-04-09T05:40:14.865Z,101109.44
2024-04-09T05:42:47.333Z,101124.09
2024-04-09T05:45:24.672Z,101037.50
2024-04-09T05:47:51.695Z,101080.84
2024-04-09T05:50:18.670Z,101087.50
2024-04-09T05:52:45.573Z,101147.09
2024-04-09T05:55:14.002Z,101140.88
2024-04-09T05:57:42.024Z,101126.25
2024-04-09T06:00:20.459Z,101175.78
2024-04-09T06:02:48.708Z,101164.88
2024-04-09T06:05:19.014Z,101156.97
2024-04-09T06:07:46.978Z,101170.53
2024-04-09T06:10:16.821Z,101200.13
2024-04-09T06:12:44.263Z,101097.72
2024-04-09T06:15:11.370Z,101111.53
2024-04-09T06:17:38.310Z,101131.78
2024-04-09T06:20:06.690Z,101205.63
2024-04-09T06:22:33.992Z,101166.47
2024-04-09T06:25:01.347Z,101193.25
2024-04-09T06:29:55.109Z,101179.88
2024-04-09T06:32:22.075Z,101186.47
2024-04-09T06:34:48.846Z,101193.41
2024-04-09T06:37:15.775Z,101241.72
2024-04-09T06:39:42.867Z,101199.88
2024-04-09T06:42:09.757Z,101221.88
2024-04-09T06:44:36.612Z,101218.22
2024-04-09T06:47:03.711Z,101213.56
2024-04-09T06:49:30.598Z,101230.63
2024-04-09T06:51:58.277Z,101182.00
2024-04-09T06:54:25.132Z,101208.88
2024-04-09T06:56:51.944Z,101179.88
2024-04-09T06:59:19.243Z,101237.56
2024-04-09T07:01:46.316Z,101263.38
2024-04-09T07:04:13.506Z,101267.59
2024-04-09T07:06:40.760Z,101266.06
2024-04-09T07:09:08.317Z,101253.06
2024-04-09T07:11:35.703Z,101215.13
2024-04-09T07:14:02.615Z,101271.00
2024-04-09T07:16:29.745Z,101280.72
2024-04-09T07:18:56.691Z,101267.31
2024-04-09T07:21:23.651Z,101302.69
2024-04-09T07:23:50.652Z,101306.50
2024-04-09T07:26:17.931Z,101291.69
2024-04-09T07:28:45.022Z,101301.00
2024-04-09T07:31:12.168Z,101263.22
2024-04-09T07:33:39.382Z,101281.66
2024-04-09T07:36:06.864Z,101266.16
2024-04-09T07:38:33.686Z,101267.81
2024-04-09T07:41:00.703Z,101235.84
2024-04-09T07:43:30.851Z,101264.78
2024-04-09T07:45:59.336Z,101298.16
2024-04-09T07:48:26.873Z,101330.78
2024-04-09T07:50:53.954Z,101354.22
2024-04-09T07:53:22.186Z,101371.97
2024-04-09T07:55:48.980Z,101346.53
2024-04-09T07:58:15.841Z,101385.78
2024-04-09T08:00:45.407Z,101386.63
2024-04-09T08:03:12.984Z,101396.09
2024-04-09T08:05:40.803Z,101399.31
2024-04-09T08:08:09.229Z,101408.34
2024-04-09T08:10:36.961Z,101389.75
2024-04-09T08:13:04.055Z,101395.25
2024-04-09T08:15:31.312Z,101399.16
2024-04-09T08:17:58.547Z,101407.78
2024-04-09T08:20:25.819Z,101347.09
2024-04-09T08:22:53.639Z,101391.53
2024-04-09T08:25:21.327Z,101424.84
2024-04-09T08:27:52.694Z,101393.78
2024-04-09T08:30:19.935Z,101433.56
2024-04-09T08:32:51.772Z,101436.22
2024-04-09T08:35:18.867Z,101425.22
2024-04-09T08:37:46.639Z,101443.84
2024-04-09T08:40:17.513Z,101453.25
2024-04-09T08:42:46.100Z,101432.03
2024-04-09T08:45:17.305Z,101443.22
2024-04-09T08:47:49.582Z,101345.31
2024-04-09T08:50:17.260Z,101445.47
2024-04-09T08:52:44.825Z,101445.13
2024-04-09T08:55:11.710Z,101452.19
2024-04-09T08:57:39.766Z,101431.72
2024-04-09T09:00:08.093Z,101443.97
2024-04-09T09:02:36.667Z,101454.63
2024-04-09T09:05:03.985Z,101463.56
2024-04-09T09:07:31.227Z,101458.78
2024-04-09T09:10:02.715Z,101470.94
2024-04-09T09:12:30.245Z,101476.25
2024-04-09T09:15:02.216Z,101392.66
2024-04-09T09:17:32.691Z,101464.78
2024-04-09T09:20:04.559Z,101473.00
2024-04-09T09:22:37.477Z,101478.78
2024-04-09T09:25:08.858Z,101434.06
2024-04-09T09:27:37.029Z,101482.03
2024-04-09T09:30:04.153Z,101482.03
2024-04-09T09:32:31.264Z,101494.09
2024-04-09T09:35:01.873Z,101312.81
2024-04-09T09:37:32.352Z,101483.72
2024-04-09T09:40:00.342Z,101435.97
2024-04-09T09:42:28.578Z,101466.34
2024-04-09T09:44:55.726Z,101480.97
2024-04-09T09:47:23.749Z,101452.13
2024-04-09T09:49:59.460Z,101509.53
2024-04-09T09:52:29.666Z,101497.50
2024-04-09T09:54:59.169Z,101453.50
2024-04-09T09:57:30.120Z,101483.63
2024-04-09T10:00:01.697Z,101370.34
2024-04-09T10:02:32.211Z,101465.19
2024-04-09T10:05:03.155Z,101453.28
2024-04-09T10:07:30.536Z,101461.75
2024-04-09T10:09:58.101Z,101407.78
2024-04-09T10:12:36.222Z,101468.03
2024-04-09T10:15:05.616Z,101440.03
2024-04-09T10:17:53.829Z,101463.22
2024-04-09T10:20:39.129Z,101460.84
2024-04-09T10:23:10.760Z,101399.06
2024-04-09T10:25:39.928Z,101467.75
2024-04-09T10:28:11.847Z,101465.03
2024-04-09T10:30:41.283Z,101460.28
2024-04-09T10:33:08.790Z,101433.59
2024-04-09T10:35:36.120Z,101457.88
2024-04-09T10:38:07.240Z,101453.81
2024-04-09T10:40:38.112Z,101452.09
2024-04-09T10:43:09.284Z,101449.53
2024-04-09T10:45:47.589Z,101461.78
2024-04-09T10:48:23.951Z,101455.78
2024-04-09T10:50:51.933Z,101449.94
2024-04-09T10:53:19.128Z,101464.00
2024-04-09T10:55:46.422Z,101457.28
2024-04-09T10:58:17.125Z,101408.31
2024-04-09T11:00:52.807Z,101457.72
2024-04-09T11:03:23.722Z,101461.09
2024-04-09T11:05:54.184Z,101449.66
2024-04-09T11:08:40.052Z,101460.22
2024-04-09T11:11:08.819Z,101445.66
2024-04-09T11:13:36.164Z,101433.50
2024-04-09T11:16:03.255Z,101450.69
2024-04-09T11:18:30.773Z,101469.78
2024-04-09T11:21:02.623Z,101463.06
2024-04-09T11:23:33.339Z,101447.03
2024-04-09T11:26:01.790Z,101460.22
2024-04-09T11:28:28.823Z,101450.03
2024-04-09T11:30:57.900Z,101449.78
2024-04-09T11:33:28.971Z,101439.75
2024-04-09T11:35:58.682Z,101383.59
2024-04-09T11:38:25.518Z,101433.16
2024-04-09T11:40:52.479Z,101451.69
2024-04-09T11:43:21.884Z,101433.81
2024-04-09T11:45:51.793Z,101449.56
2024-04-09T11:48:20.887Z,101460.38
2024-04-09T11:50:47.762Z,101464.03
2024-04-09T11:53:20.001Z,101438.06
2024-04-09T11:55:47.905Z,101452.63
2024-04-09T11:58:14.700Z,101445.09
2024-04-09T12:00:42.972Z,101456.28
2024-04-09T12:03:10.200Z,101450.78
2024-04-09T12:05:37.287Z,101449.44
2024-04-09T12:08:04.433Z,101455.19
2024-04-09T12:10:31.287Z,101432.75
2024-04-09T12:12:58.211Z,101440.34
2024-04-09T12:15:25.006Z,101437.94
2024-04-09T12:17:51.866Z,101448.06
2024-04-09T12:20:20.155Z,101448.53
2024-04-09T12:22:47.758Z,101442.56
2024-04-09T12:25:14.800Z,101429.91
2024-04-09T12:27:42.139Z,101435.66
2024-04-09T12:30:09.819Z,101421.53
2024-04-09T12:32:37.373Z,101432.66
2024-04-09T12:35:04.642Z,101411.56
2024-04-09T12:37:31.697Z,101430.66
2024-04-09T12:39:58.430Z,101432.28
2024-04-09T12:42:27.938Z,101422.53
2024-04-09T12:44:56.391Z,101330.75
2024-04-09T12:47:23.407Z,101439.88
2024-04-09T12:49:50.326Z,101433.22
2024-04-09T12:52:17.260Z,101431.53
2024-04-09T12:54:44.187Z,101435.84
2024-04-09T12:57:11.173Z,101411.66
2024-04-09T13:02:12.965Z,101411.56
2024-04-09T13:04:40.346Z,101373.31
2024-04-09T13:07:07.447Z,101395.66
2024-04-09T13:09:34.284Z,101420.56
2024-04-09T13:12:01.134Z,101415.41
2024-04-09T13:14:27.963Z,101399.41
2024-04-09T13:16:56.752Z,101403.25
2024-04-09T13:19:25.814Z,101398.94
2024-04-09T13:21:52.765Z,101394.03
2024-04-09T13:24:19.494Z,101397.69
2024-04-09T13:26:46.271Z,101389.09
2024-04-09T13:29:13.141Z,101386.91
2024-04-09T13:31:40.095Z,101368.41
2024-04-09T13:34:07.449Z,101378.59
2024-04-09T13:36:34.570Z,101377.19
2024-04-09T13:39:01.328Z,101382.94
2024-04-09T13:41:28.195Z,101361.53
2024-04-09T13:43:55.498Z,101387.13
2024-04-09T13:46:22.823Z,101361.47
2024-04-09T13:48:53.361Z,101373.41
2024-04-09T13:51:20.388Z,101397.44
2024-04-09T13:53:47.304Z,101386.22
2024-04-09T13:56:14.365Z,101394.81
2024-04-09T13:58:41.593Z,101392.69
2024-04-09T14:01:08.516Z,101397.31
2024-04-09T14:03:36.135Z,101393.50
2024-04-09T14:06:04.123Z,101394.53
2024-04-09T14:08:31.692Z,101344.22
2024-04-09T14:10:58.698Z,101379.50
2024-04-09T14:13:29.790Z,101379.22
2024-04-09T14:15:57.037Z,101400.66
2024-04-09T14:18:28.153Z,101389.44
2024-04-09T14:20:58.008Z,101385.19
2024-04-09T14:23:25.650Z,101387.72
2024-04-09T14:25:52.730Z,101396.72
2024-04-09T14:28:20.124Z,101403.53
2024-04-09T14:30:47.096Z,101403.44
2024-04-09T14:33:14.461Z,101401.97
2024-04-09T14:35:44.435Z,101394.84
2024-04-09T14:38:11.324Z,101344.25
2024-04-09T14:40:38.206Z,101406.63
2024-04-09T14:43:05.219Z,101410.75
2024-04-09T14:45:32.003Z,101407.47
2024-04-09T14:47:58.929Z,101418.69
2024-04-09T14:50:26.395Z,101413.28
2024-04-09T14:52:53.344Z,101406.59
2024-04-09T14:55:20.306Z,101413.44
2024-04-09T14:57:47.096Z,101407.25
2024-04-09T15:00:14.541Z,101420.63
2024-04-09T15:02:41.690Z,101398.28
2024-04-09T15:05:10.983Z,101419.13
2024-04-09T15:07:38.653Z,101423.34
2024-04-09T15:10:12.102Z,101341.31
2024-04-09T15:12:43.539Z,101427.25
2024-04-09T15:15:13.100Z,101422.25
2024-04-09T15:17:40.162Z,101414.31
2024-04-09T15:20:11.067Z,101443.63
2024-04-09T15:22:39.932Z,101453.19
2024-04-09T15:25:09.155Z,101448.13
2024-04-09T15:27:36.187Z,101455.31
2024-04-09T15:30:06.143Z,101362.34
2024-04-09T15:32:34.486Z,101461.63
2024-04-09T15:35:01.367Z,101429.97
2024-04-09T15:37:29.127Z,101402.56
2024-04-09T15:39:55.860Z,101482.94
2024-04-09T15:42:22.646Z,101480.59
2024-04-09T15:44:49.365Z,101479.84
2024-04-09T15:47:16.362Z,101477.16
2024-04-09T15:49:43.238Z,101462.81
2024-04-09T15:52:09.989Z,101484.31
2024-04-09T15:54:36.780Z,101449.78
2024-04-09T15:57:03.743Z,101490.19
2024-04-09T15:59:30.564Z,101486.72
2024-04-09T16:01:58.606Z,101483.38
2024-04-09T16:04:25.886Z,101484.56
2024-04-09T16:06:52.748Z,101468.69
2024-04-09T16:09:21.556Z,101479.34
2024-04-09T16:11:48.802Z,101480.22
2024-04-09T16:14:15.714Z,101474.81
2024-04-09T16:16:45.604Z,101485.28
2024-04-09T16:19:12.599Z,101485.47
2024-04-09T16:21:39.405Z,101448.50
2024-04-09T16:24:06.396Z,101473.00
2024-04-09T16:26:33.423Z,101457.28
2024-04-09T16:29:02.915Z,101503.19
2024-04-09T16:31:29.753Z,101503.19
2024-04-09T16:33:56.652Z,101515.69
2024-04-09T16:36:23.542Z,101523.66
2024-04-09T16:38:50.315Z,101521.94
2024-04-09T16:41:17.226Z,101492.00
2024-04-09T16:43:44.117Z,101528.00
2024-04-09T16:46:11.284Z,101535.09
2024-04-09T16:48:38.305Z,101535.53
2024-04-09T16:51:06.093Z,101532.97
2024-04-09T16:53:33.095Z,101546.78
2024-04-09T16:56:01.491Z,101506.69
2024-04-09T16:58:29.694Z,101549.91
2024-04-09T17:00:57.083Z,101522.44
2024-04-09T17:03:24.833Z,101558.25
2024-04-09T17:05:51.719Z,101556.53
2024-04-09T17:08:18.668Z,101569.03
2024-04-09T17:10:59.124Z,101566.00
2024-04-09T17:13:26.874Z,101532.34
2024-04-09T17:15:54.028Z,101513.03
2024-04-09T17:18:21.189Z,101574.00
2024-04-09T17:20:48.844Z,101533.31
2024-04-09T17:23:20.495Z,101563.72
2024-04-09T17:25:48.129Z,101554.88
2024-04-09T17:28:14.945Z,101591.19
2024-04-09T17:30:41.883Z,101594.69
2024-04-09T17:33:08.876Z,101590.06
2024-04-09T17:35:35.906Z,101545.19
2024-04-09T17:38:02.920Z,101610.28
2024-04-09T17:40:29.816Z,101612.78
2024-04-09T17:43:01.966Z,101618.50
2024-04-09T17:45:28.791Z,101607.72
2024-04-09T17:47:56.951Z,101628.44
2024-04-09T17:50:24.171Z,101618.50
2024-04-09T17:52:52.416Z,101624.19
2024-04-09T17:55:23.322Z,101621.25
2024-04-09T17:57:50.470Z,101580.69
2024-04-09T18:00:17.359Z,101640.41
2024-04-09T18:02:44.272Z,101638.16
2024-04-09T18:05:11.207Z,101643.47
2024-04-09T18:07:38.316Z,101658.84
2024-04-09T18:10:06.952Z,101657.72
2024-04-09T18:12:33.751Z,101616.66
2024-04-09T18:15:00.702Z,101665.53
2024-04-09T18:17:29.721Z,101652.00
2024-04-09T18:19:57.202Z,101688.53
2024-04-09T18:22:24.241Z,101684.28
2024-04-09T18:24:51.476Z,101695.34
2024-04-09T18:27:21.143Z,101699.63
2024-04-09T18:29:48.028Z,101698.09
2024-04-09T18:32:17.905Z,101713.09
2024-04-09T18:34:44.838Z,101696.59
2024-04-09T18:37:11.802Z,101723.72
2024-04-09T18:39:38.538Z,101732.78
2024-04-09T18:42:05.520Z,101729.72
2024-04-09T18:44:32.494Z,101740.19
2024-04-09T18:46:59.449Z,101746.53
2024-04-09T18:49:26.387Z,101715.44
2024-04-09T18:51:54.719Z,101754.75
2024-04-09T18:54:21.901Z,101754.91
2024-04-09T18:56:48.656Z,101760.84
2024-04-09T18:59:15.706Z,101717.81
2024-04-09T19:01:43.870Z,101731.38
2024-04-09T19:04:10.851Z,101740.69
2024-04-09T19:06:37.684Z,101784.03
2024-04-09T19:09:05.899Z,101791.94
2024-04-09T19:11:32.851Z,101792.22
2024-04-09T19:14:00.702Z,101795.31
2024-04-09T19:16:27.522Z,101810.59
2024-04-09T19:18:54.261Z,101802.63
2024-04-09T19:21:21.003Z,101807.13
2024-04-09T19:23:47.761Z,101806.84
2024-04-09T19:26:16.078Z,101815.91
2024-04-09T19:28:42.955Z,101827.75
2024-04-09T19:31:09.935Z,101826.19
2024-04-09T19:33:36.919Z,101831.28
2024-04-09T19:36:04.830Z,101833.84
2024-04-09T19:38:33.210Z,101846.03
2024-04-09T19:41:00.118Z,101854.34
2024-04-09T19:43:37.570Z,101859.00
2024-04-09T19:46:09.515Z,101859.13
2024-04-09T19:48:36.981Z,101860.84
2024-04-09T19:51:04.362Z,101870.72
2024-04-09T19:53:44.857Z,101882.19
2024-04-09T19:56:18.392Z,101861.88
2024-04-09T19:58:46.226Z,101894.75
2024-04-09T20:01:13.973Z,101893.56
2024-04-09T20:03:43.066Z,101895.69
2024-04-09T20:06:11.324Z,101906.50
2024-04-09T20:08:39.425Z,101884.13
2024-04-09T20:11:07.969Z,101917.63
2024-04-09T20:13:34.908Z,101909.59
2024-04-09T20:16:01.687Z,101920.06
2024-04-09T20:18:30.120Z,101920.19
2024-04-09T20:20:58.962Z,101925.81
2024-04-09T20:23:26.178Z,101923.81
2024-04-09T20:25:56.578Z,101917.72
2024-04-09T20:28:25.400Z,101938.00
2024-04-09T20:30:52.858Z,101938.59
2024-04-09T20:33:20.280Z,101940.53
2024-04-09T20:35:47.552Z,101936.28
2024-04-09T20:38:14.744Z,101939.59
2024-04-09T20:40:42.969Z,101944.59
2024-04-09T20:43:09.692Z,101940.34
2024-04-09T20:45:36.455Z,101931.94
2024-04-09T20:48:04.678Z,101940.41
2024-04-09T20:50:31.693Z,101936.63
2024-04-09T20:52:59.677Z,101944.47
2024-04-09T20:55:26.436Z,101938.84
2024-04-09T20:57:54.182Z,101933.75
2024-04-09T21:00:20.961Z,101936.69
2024-04-09T21:02:47.744Z,101939.63
2024-04-09T21:05:14.740Z,101953.66
2024-04-09T21:07:41.581Z,101958.03
2024-04-09T21:10:09.770Z,101950.63
2024-04-09T21:12:37.142Z,101947.22
2024-04-09T21:15:05.202Z,101956.25
2024-04-09T21:17:32.605Z,101958.19
2024-04-09T21:19:59.656Z,101956.97
2024-04-09T21:22:26.440Z,101957.59
2024-04-09T21:24:53.255Z,101965.94
2024-04-09T21:50:30.491Z,101955.69
2024-04-09T21:52:58.072Z,101964.53
2024-04-09T21:55:24.839Z,101947.13
2024-04-09T21:57:51.602Z,101952.34
2024-04-09T22:00:21.947Z,101949.44
2024-04-09T22:02:49.414Z,101945.28
2024-04-09T22:05:16.634Z,101951.47
2024-04-09T22:07:43.901Z,101955.97
2024-04-09T22:10:14.603Z,101886.97
2024-04-09T22:12:46.038Z,101951.63
2024-04-09T22:15:13.130Z,101950.41
2024-04-09T22:17:43.276Z,101941.75
2024-04-09T22:20:10.421Z,101943.84
2024-04-09T22:22:37.195Z,101941.88
2024-04-09T22:25:04.075Z,101935.06
2024-04-09T22:27:30.945Z,101951.72
2024-04-09T22:29:57.711Z,101942.16
2024-04-09T22:32:24.643Z,101945.28
2024-04-09T22:34:51.542Z,101947.97
2024-04-09T22:37:18.321Z,101940.31
2024-04-09T22:39:45.181Z,101960.03
2024-04-09T22:42:11.944Z,101958.44
2024-04-09T22:44:38.864Z,101963.06
2024-04-09T22:47:06.110Z,101970.59
2024-04-09T22:49:33.007Z,101965.72
2024-04-09T22:51:59.758Z,101965.00
2024-04-09T22:54:27.720Z,101965.44
2024-04-09T22:56:54.508Z,101969.59
2024-04-09T22:59:21.365Z,101975.06
2024-04-09T23:01:48.179Z,101973.63
2024-04-09T23:04:14.999Z,101959.38
2024-04-09T23:06:41.787Z,101970.56
2024-04-09T23:09:12.267Z,101959.72
2024-04-09T23:11:39.176Z,101962.03
2024-04-09T23:14:05.975Z,101945.91
2024-04-09T23:16:33.069Z,101968.78
2024-04-09T23:19:00.007Z,101960.59
2024-04-09T23:21:26.904Z,101975.78
2024-04-09T23:23:53.676Z,101972.59
2024-04-09T23:26:20.910Z,101961.91
2024-04-09T23:28:47.757Z,101961.91
2024-04-09T23:31:14.606Z,101965.53
2024-04-09T23:33:41.443Z,101970.53
2024-04-09T23:36:08.596Z,101961.56
2024-04-09T23:38:35.483Z,101968.28
2024-04-09T23:41:02.898Z,101964.41
2024-04-09T23:43:29.970Z,101962.06
2024-04-09T23:46:04.224Z,101963.03
2024-04-09T23:48:32.230Z,101895.91
2024-04-09T23:51:03.517Z,101961.38
2024-04-09T23:53:30.869Z,101958.41
2024-04-09T23:55:59.556Z,101971.25
2024-04-09T23:58:26.732Z,101969.03
